sensor_id;sensor_type;location;lat;lon;timestamp;temperature;humidity
64670;DHT22;51080;51.690;5.174;2023-04-02T00:03:07;7.80;91.20
64670;DHT22;51080;51.690;5.174;2023-04-02T00:08:53;7.70;90.80
64670;DHT22;51080;51.690;5.174;2023-04-02T00:15:11;7.70;90.80
64670;DHT22;51080;51.690;5.174;2023-04-02T00:21:30;7.70;90.80
64670;DHT22;51080;51.690;5.174;2023-04-02T00:27:15;7.60;90.80
64670;DHT22;51080;51.690;5.174;2023-04-02T00:33:00;7.50;90.50
64670;DHT22;51080;51.690;5.174;2023-04-02T00:38:46;7.50;90.60
64670;DHT22;51080;51.690;5.174;2023-04-02T00:44:33;7.50;90.60
64670;DHT22;51080;51.690;5.174;2023-04-02T00:50:32;7.40;90.80
64670;DHT22;51080;51.690;5.174;2023-04-02T00:56:24;7.40;90.60
64670;DHT22;51080;51.690;5.174;2023-04-02T01:02:28;7.30;90.50
64670;DHT22;51080;51.690;5.174;2023-04-02T01:20:37;7.30;90.60
64670;DHT22;51080;51.690;5.174;2023-04-02T01:32:22;7.30;90.00
64670;DHT22;51080;51.690;5.174;2023-04-02T01:38:46;7.20;89.50
64670;DHT22;51080;51.690;5.174;2023-04-02T01:44:47;7.10;89.00
64670;DHT22;51080;51.690;5.174;2023-04-02T01:50:36;7.00;89.00
64670;DHT22;51080;51.690;5.174;2023-04-02T01:56:22;6.90;89.10
64670;DHT22;51080;51.690;5.174;2023-04-02T02:02:11;6.90;89.10
64670;DHT22;51080;51.690;5.174;2023-04-02T02:07:57;6.80;89.10
64670;DHT22;51080;51.690;5.174;2023-04-02T02:13:46;6.80;88.80
64670;DHT22;51080;51.690;5.174;2023-04-02T02:19:37;6.70;89.10
64670;DHT22;51080;51.690;5.174;2023-04-02T02:25:27;6.70;88.80
64670;DHT22;51080;51.690;5.174;2023-04-02T02:31:21;6.70;88.80
64670;DHT22;51080;51.690;5.174;2023-04-02T02:37:12;6.70;88.70
64670;DHT22;51080;51.690;5.174;2023-04-02T02:43:00;6.60;88.90
64670;DHT22;51080;51.690;5.174;2023-04-02T02:48:46;6.60;88.90
64670;DHT22;51080;51.690;5.174;2023-04-02T02:54:31;6.50;88.40
64670;DHT22;51080;51.690;5.174;2023-04-02T03:00:18;6.50;88.40
64670;DHT22;51080;51.690;5.174;2023-04-02T03:06:05;6.50;88.20
64670;DHT22;51080;51.690;5.174;2023-04-02T03:12:01;6.40;88.00
64670;DHT22;51080;51.690;5.174;2023-04-02T03:18:01;6.40;88.10
64670;DHT22;51080;51.690;5.174;2023-04-02T03:23:50;6.40;88.20
64670;DHT22;51080;51.690;5.174;2023-04-02T03:29:40;6.40;87.70
64670;DHT22;51080;51.690;5.174;2023-04-02T03:35:36;6.30;88.10
64670;DHT22;51080;51.690;5.174;2023-04-02T03:41:33;6.30;87.70
64670;DHT22;51080;51.690;5.174;2023-04-02T03:53:13;6.20;87.40
64670;DHT22;51080;51.690;5.174;2023-04-02T03:59:10;6.20;87.70
64670;DHT22;51080;51.690;5.174;2023-04-02T04:04:54;6.20;88.00
64670;DHT22;51080;51.690;5.174;2023-04-02T04:10:41;6.20;87.90
64670;DHT22;51080;51.690;5.174;2023-04-02T04:16:32;6.10;87.30
64670;DHT22;51080;51.690;5.174;2023-04-02T04:22:27;6.10;87.50
64670;DHT22;51080;51.690;5.174;2023-04-02T04:34:40;6.00;87.90
64670;DHT22;51080;51.690;5.174;2023-04-02T04:40:30;6.10;88.20
64670;DHT22;51080;51.690;5.174;2023-04-02T04:46:36;6.10;88.00
64670;DHT22;51080;51.690;5.174;2023-04-02T04:52:52;6.00;87.90
64670;DHT22;51080;51.690;5.174;2023-04-02T04:58:54;6.10;87.70
64670;DHT22;51080;51.690;5.174;2023-04-02T05:04:41;6.10;88.10
64670;DHT22;51080;51.690;5.174;2023-04-02T05:10:40;6.10;87.90
64670;DHT22;51080;51.690;5.174;2023-04-02T05:16:41;6.00;87.60
64670;DHT22;51080;51.690;5.174;2023-04-02T05:23:14;6.00;87.40
64670;DHT22;51080;51.690;5.174;2023-04-02T05:34:59;5.90;87.10
64670;DHT22;51080;51.690;5.174;2023-04-02T05:41:36;5.90;87.10
64670;DHT22;51080;51.690;5.174;2023-04-02T05:47:28;5.90;87.10
64670;DHT22;51080;51.690;5.174;2023-04-02T05:59:24;5.80;86.50
64670;DHT22;51080;51.690;5.174;2023-04-02T06:05:14;5.80;85.90
64670;DHT22;51080;51.690;5.174;2023-04-02T06:16:58;5.70;85.60
64670;DHT22;51080;51.690;5.174;2023-04-02T06:22:46;5.70;85.70
64670;DHT22;51080;51.690;5.174;2023-04-02T06:28:39;5.60;85.60
64670;DHT22;51080;51.690;5.174;2023-04-02T06:34:25;5.60;85.50
64670;DHT22;51080;51.690;5.174;2023-04-02T06:40:36;5.60;85.00
64670;DHT22;51080;51.690;5.174;2023-04-02T06:46:31;5.50;83.70
64670;DHT22;51080;51.690;5.174;2023-04-02T06:52:35;5.50;83.30
64670;DHT22;51080;51.690;5.174;2023-04-02T06:58:20;5.50;83.20
64670;DHT22;51080;51.690;5.174;2023-04-02T07:04:05;5.50;83.30
64670;DHT22;51080;51.690;5.174;2023-04-02T07:09:50;5.50;83.40
64670;DHT22;51080;51.690;5.174;2023-04-02T07:15:34;5.50;81.80
64670;DHT22;51080;51.690;5.174;2023-04-02T07:21:18;5.50;82.70
64670;DHT22;51080;51.690;5.174;2023-04-02T07:27:33;5.50;82.10
64670;DHT22;51080;51.690;5.174;2023-04-02T07:33:23;5.50;82.30
64670;DHT22;51080;51.690;5.174;2023-04-02T07:39:07;5.60;82.60
64670;DHT22;51080;51.690;5.174;2023-04-02T07:44:51;5.60;82.10
64670;DHT22;51080;51.690;5.174;2023-04-02T07:50:35;5.60;81.70
64670;DHT22;51080;51.690;5.174;2023-04-02T07:56:20;5.60;81.60
64670;DHT22;51080;51.690;5.174;2023-04-02T08:02:04;5.70;81.80
64670;DHT22;51080;51.690;5.174;2023-04-02T08:07:53;5.70;81.70
64670;DHT22;51080;51.690;5.174;2023-04-02T08:13:39;5.80;82.20
64670;DHT22;51080;51.690;5.174;2023-04-02T08:19:23;5.70;81.40
64670;DHT22;51080;51.690;5.174;2023-04-02T08:25:08;5.70;80.80
64670;DHT22;51080;51.690;5.174;2023-04-02T08:31:23;5.70;79.70
64670;DHT22;51080;51.690;5.174;2023-04-02T08:37:11;5.70;79.30
64670;DHT22;51080;51.690;5.174;2023-04-02T08:43:21;5.80;79.90
64670;DHT22;51080;51.690;5.174;2023-04-02T08:49:12;5.80;79.80
64670;DHT22;51080;51.690;5.174;2023-04-02T08:54:57;5.80;79.10
64670;DHT22;51080;51.690;5.174;2023-04-02T09:00:43;5.80;78.70
64670;DHT22;51080;51.690;5.174;2023-04-02T09:06:26;5.80;79.40
64670;DHT22;51080;51.690;5.174;2023-04-02T09:12:17;5.80;78.90
64670;DHT22;51080;51.690;5.174;2023-04-02T09:18:18;5.80;79.60
64670;DHT22;51080;51.690;5.174;2023-04-02T09:24:03;5.90;79.00
64670;DHT22;51080;51.690;5.174;2023-04-02T09:35:55;5.90;79.70
64670;DHT22;51080;51.690;5.174;2023-04-02T09:41:41;6.00;79.40
64670;DHT22;51080;51.690;5.174;2023-04-02T09:47:25;6.10;78.50
64670;DHT22;51080;51.690;5.174;2023-04-02T09:53:28;6.20;79.40
64670;DHT22;51080;51.690;5.174;2023-04-02T09:59:17;6.20;79.20
64670;DHT22;51080;51.690;5.174;2023-04-02T10:05:03;6.30;78.10
64670;DHT22;51080;51.690;5.174;2023-04-02T10:10:54;6.30;79.10
64670;DHT22;51080;51.690;5.174;2023-04-02T10:16:52;6.40;78.90
64670;DHT22;51080;51.690;5.174;2023-04-02T10:23:15;6.50;78.50
64670;DHT22;51080;51.690;5.174;2023-04-02T10:29:38;6.50;76.60
64670;DHT22;51080;51.690;5.174;2023-04-02T11:06:00;7.00;77.20
64670;DHT22;51080;51.690;5.174;2023-04-02T11:11:48;7.00;75.70
64670;DHT22;51080;51.690;5.174;2023-04-02T11:17:33;7.00;77.00
64670;DHT22;51080;51.690;5.174;2023-04-02T11:23:19;7.10;76.10
64670;DHT22;51080;51.690;5.174;2023-04-02T11:29:27;7.20;75.90
64670;DHT22;51080;51.690;5.174;2023-04-02T11:35:42;7.50;76.70
64670;DHT22;51080;51.690;5.174;2023-04-02T11:42:02;7.90;74.50
64670;DHT22;51080;51.690;5.174;2023-04-02T11:54:36;8.20;74.30
64670;DHT22;51080;51.690;5.174;2023-04-02T12:01:14;8.40;72.60
64670;DHT22;51080;51.690;5.174;2023-04-02T12:07:20;8.70;73.70
64670;DHT22;51080;51.690;5.174;2023-04-02T12:19:08;13.70;66.90
64670;DHT22;51080;51.690;5.174;2023-04-02T12:24:56;15.00;64.20
64670;DHT22;51080;51.690;5.174;2023-04-02T12:30:46;15.60;64.70
64670;DHT22;51080;51.690;5.174;2023-04-02T12:36:32;15.30;62.40
64670;DHT22;51080;51.690;5.174;2023-04-02T12:42:27;15.20;63.20
64670;DHT22;51080;51.690;5.174;2023-04-02T12:48:11;15.10;63.50
64670;DHT22;51080;51.690;5.174;2023-04-02T12:53:57;15.20;62.00
64670;DHT22;51080;51.690;5.174;2023-04-02T12:59:42;15.70;60.30
64670;DHT22;51080;51.690;5.174;2023-04-02T13:05:44;16.30;61.10
64670;DHT22;51080;51.690;5.174;2023-04-02T13:11:38;16.90;60.30
64670;DHT22;51080;51.690;5.174;2023-04-02T13:17:36;17.20;58.70
64670;DHT22;51080;51.690;5.174;2023-04-02T13:23:35;17.10;58.10
64670;DHT22;51080;51.690;5.174;2023-04-02T13:29:34;17.00;56.10
64670;DHT22;51080;51.690;5.174;2023-04-02T13:35:12;16.80;57.20
64670;DHT22;51080;51.690;5.174;2023-04-02T13:40:57;16.90;57.70
64670;DHT22;51080;51.690;5.174;2023-04-02T13:46:42;16.70;56.70
64670;DHT22;51080;51.690;5.174;2023-04-02T13:52:26;16.30;56.10
64670;DHT22;51080;51.690;5.174;2023-04-02T13:58:10;15.70;56.10
64670;DHT22;51080;51.690;5.174;2023-04-02T14:03:53;15.30;58.00
64670;DHT22;51080;51.690;5.174;2023-04-02T14:28:35;13.80;58.30
64670;DHT22;51080;51.690;5.174;2023-04-02T14:40:56;13.10;59.20
64670;DHT22;51080;51.690;5.174;2023-04-02T14:46:40;13.00;58.80
64670;DHT22;51080;51.690;5.174;2023-04-02T14:52:26;12.90;59.00
64670;DHT22;51080;51.690;5.174;2023-04-02T14:58:19;12.80;59.40
64670;DHT22;51080;51.690;5.174;2023-04-02T15:04:07;12.90;58.70
64670;DHT22;51080;51.690;5.174;2023-04-02T15:10:07;13.00;58.10
64670;DHT22;51080;51.690;5.174;2023-04-02T15:15:53;13.00;59.30
64670;DHT22;51080;51.690;5.174;2023-04-02T15:22:50;13.10;58.30
64670;DHT22;51080;51.690;5.174;2023-04-02T15:28:45;13.00;56.10
64670;DHT22;51080;51.690;5.174;2023-04-02T15:34:34;13.00;57.30
64670;DHT22;51080;51.690;5.174;2023-04-02T15:40:50;13.00;58.20
64670;DHT22;51080;51.690;5.174;2023-04-02T15:52:57;12.80;58.00
64670;DHT22;51080;51.690;5.174;2023-04-02T16:05:12;12.70;58.20
64670;DHT22;51080;51.690;5.174;2023-04-02T16:10:57;12.60;58.30
64670;DHT22;51080;51.690;5.174;2023-04-02T16:16:41;12.50;58.20
64670;DHT22;51080;51.690;5.174;2023-04-02T16:22:29;12.40;57.80
64670;DHT22;51080;51.690;5.174;2023-04-02T16:34:23;12.00;58.90
64670;DHT22;51080;51.690;5.174;2023-04-02T16:40:30;11.90;58.50
64670;DHT22;51080;51.690;5.174;2023-04-02T16:46:30;11.60;58.80
64670;DHT22;51080;51.690;5.174;2023-04-02T17:11:23;11.10;60.20
64670;DHT22;51080;51.690;5.174;2023-04-02T17:17:08;10.90;58.30
64670;DHT22;51080;51.690;5.174;2023-04-02T17:22:53;10.80;59.50
64670;DHT22;51080;51.690;5.174;2023-04-02T17:28:38;10.60;60.40
64670;DHT22;51080;51.690;5.174;2023-04-02T17:34:22;10.50;60.50
64670;DHT22;51080;51.690;5.174;2023-04-02T17:40:33;10.30;61.30
64670;DHT22;51080;51.690;5.174;2023-04-02T17:46:32;10.10;61.00
64670;DHT22;51080;51.690;5.174;2023-04-02T17:53:06;10.00;61.50
64670;DHT22;51080;51.690;5.174;2023-04-02T18:17:54;9.40;63.60
64670;DHT22;51080;51.690;5.174;2023-04-02T18:48:56;8.70;63.90
64670;DHT22;51080;51.690;5.174;2023-04-02T18:54:51;8.60;64.20
64670;DHT22;51080;51.690;5.174;2023-04-02T19:00:40;8.50;64.80
64670;DHT22;51080;51.690;5.174;2023-04-02T19:06:28;8.40;65.20
64670;DHT22;51080;51.690;5.174;2023-04-02T19:12:21;8.20;65.50
64670;DHT22;51080;51.690;5.174;2023-04-02T19:18:17;8.10;65.80
64670;DHT22;51080;51.690;5.174;2023-04-02T19:24:27;8.00;66.00
64670;DHT22;51080;51.690;5.174;2023-04-02T19:30:33;7.90;66.30
64670;DHT22;51080;51.690;5.174;2023-04-02T19:36:43;7.80;66.50
64670;DHT22;51080;51.690;5.174;2023-04-02T19:42:43;7.60;66.90
64670;DHT22;51080;51.690;5.174;2023-04-02T19:48:40;7.50;67.10
64670;DHT22;51080;51.690;5.174;2023-04-02T19:54:26;7.40;67.50
64670;DHT22;51080;51.690;5.174;2023-04-02T20:00:13;7.30;67.60
64670;DHT22;51080;51.690;5.174;2023-04-02T20:05:57;7.10;67.80
64670;DHT22;51080;51.690;5.174;2023-04-02T20:11:42;7.00;68.00
64670;DHT22;51080;51.690;5.174;2023-04-02T20:17:27;6.90;68.40
64670;DHT22;51080;51.690;5.174;2023-04-02T20:23:14;6.80;69.00
64670;DHT22;51080;51.690;5.174;2023-04-02T20:29:00;6.70;69.10
64670;DHT22;51080;51.690;5.174;2023-04-02T20:34:44;6.70;69.10
64670;DHT22;51080;51.690;5.174;2023-04-02T20:40:29;6.50;69.20
64670;DHT22;51080;51.690;5.174;2023-04-02T20:46:13;6.50;69.40
64670;DHT22;51080;51.690;5.174;2023-04-02T20:51:58;6.40;69.70
64670;DHT22;51080;51.690;5.174;2023-04-02T20:57:43;6.40;69.90
64670;DHT22;51080;51.690;5.174;2023-04-02T21:03:26;6.30;70.10
64670;DHT22;51080;51.690;5.174;2023-04-02T21:09:15;6.30;70.30
64670;DHT22;51080;51.690;5.174;2023-04-02T21:15:00;6.30;70.40
64670;DHT22;51080;51.690;5.174;2023-04-02T21:21:00;6.30;70.80
64670;DHT22;51080;51.690;5.174;2023-04-02T21:26:45;6.30;70.80
64670;DHT22;51080;51.690;5.174;2023-04-02T21:32:29;6.20;71.00
64670;DHT22;51080;51.690;5.174;2023-04-02T21:38:14;6.20;71.00
64670;DHT22;51080;51.690;5.174;2023-04-02T21:44:00;6.10;71.00
64670;DHT22;51080;51.690;5.174;2023-04-02T21:50:15;6.10;71.00
64670;DHT22;51080;51.690;5.174;2023-04-02T21:56:07;6.10;71.30
64670;DHT22;51080;51.690;5.174;2023-04-02T22:01:52;6.00;71.00
64670;DHT22;51080;51.690;5.174;2023-04-02T22:07:36;5.90;71.20
64670;DHT22;51080;51.690;5.174;2023-04-02T22:13:21;5.90;71.30
64670;DHT22;51080;51.690;5.174;2023-04-02T22:19:08;5.80;71.30
64670;DHT22;51080;51.690;5.174;2023-04-02T22:24:53;5.80;71.40
64670;DHT22;51080;51.690;5.174;2023-04-02T22:30:37;5.70;71.60
64670;DHT22;51080;51.690;5.174;2023-04-02T22:36:23;5.70;71.60
64670;DHT22;51080;51.690;5.174;2023-04-02T22:42:38;5.70;71.60
64670;DHT22;51080;51.690;5.174;2023-04-02T22:48:23;5.70;72.00
64670;DHT22;51080;51.690;5.174;2023-04-02T22:54:08;5.70;71.50
64670;DHT22;51080;51.690;5.174;2023-04-02T22:59:53;5.60;71.50
64670;DHT22;51080;51.690;5.174;2023-04-02T23:05:36;5.50;71.50
64670;DHT22;51080;51.690;5.174;2023-04-02T23:11:23;5.40;71.60
64670;DHT22;51080;51.690;5.174;2023-04-02T23:17:08;5.30;71.60
64670;DHT22;51080;51.690;5.174;2023-04-02T23:22:53;5.20;71.70
64670;DHT22;51080;51.690;5.174;2023-04-02T23:28:39;5.20;71.70
64670;DHT22;51080;51.690;5.174;2023-04-02T23:34:23;5.20;71.70
64670;DHT22;51080;51.690;5.174;2023-04-02T23:40:09;5.20;71.70
64670;DHT22;51080;51.690;5.174;2023-04-02T23:45:53;5.10;71.70
64670;DHT22;51080;51.690;5.174;2023-04-02T23:51:37;5.10;71.80
64670;DHT22;51080;51.690;5.174;2023-04-02T23:57:22;5.00;71.80
